createdAt,value
2022-11-04T00:02:55.791Z,60.23
2022-11-04T00:08:16.442Z,61.21
2022-11-04T00:13:19.471Z,60.67
2022-11-04T00:18:24.124Z,60.92
2022-11-04T00:23:44.615Z,60.85
2022-11-04T00:28:48.341Z,60.70
2022-11-04T00:33:53.607Z,61.38
2022-11-04T00:38:56.970Z,60.91
2022-11-04T00:44:01.309Z,60.54
2022-11-04T00:49:06.270Z,60.80
2022-11-04T00:54:09.348Z,60.90
2022-11-04T00:59:14.597Z,60.50
2022-11-04T01:04:19.244Z,60.58
2022-11-04T01:09:22.448Z,60.85
2022-11-04T01:14:26.338Z,60.89
2022-11-04T01:19:30.957Z,60.95
2022-11-04T01:24:34.051Z,60.98
2022-11-04T01:29:37.262Z,60.98
2022-11-04T01:34:43.478Z,60.54
2022-11-04T01:39:47.006Z,60.74
2022-11-04T01:44:51.864Z,60.53
2022-11-04T01:49:58.001Z,60.68
2022-11-04T01:55:02.697Z,60.42
2022-11-04T02:00:08.236Z,60.49
2022-11-04T02:05:12.596Z,60.47
2022-11-04T02:10:15.677Z,60.42
2022-11-04T02:15:22.252Z,60.46
2022-11-04T02:20:31.263Z,60.59
2022-11-04T02:25:48.081Z,60.34
2022-11-04T02:30:54.767Z,60.76
2022-11-04T02:36:02.095Z,60.55
2022-11-04T02:41:16.252Z,60.78
2022-11-04T02:46:23.616Z,60.54
2022-11-04T02:51:30.486Z,60.59
2022-11-04T02:56:35.248Z,60.65
2022-11-04T03:01:42.060Z,60.56
2022-11-04T03:06:46.897Z,60.37
2022-11-04T03:11:53.745Z,60.88
2022-11-04T03:16:59.809Z,60.45
2022-11-04T03:22:05.720Z,61.06
2022-11-04T03:27:14.318Z,60.68
2022-11-04T03:32:23.540Z,60.68
2022-11-04T03:37:26.819Z,61.28
2022-11-04T03:42:32.427Z,61.21
2022-11-04T03:47:38.930Z,62.29
2022-11-04T03:52:42.315Z,62.50
2022-11-04T03:57:49.763Z,61.83
2022-11-04T04:03:08.354Z,61.78
2022-11-04T04:08:17.226Z,62.62
2022-11-04T04:13:25.223Z,62.11
2022-11-04T04:18:33.344Z,62.71
2022-11-04T04:23:54.779Z,62.29
2022-11-04T04:28:58.507Z,62.82
2022-11-04T04:34:03.029Z,62.21
2022-11-04T04:39:24.191Z,62.04
2022-11-04T04:44:45.733Z,62.64
2022-11-04T04:49:53.376Z,62.51
2022-11-04T04:54:56.503Z,62.30
2022-11-04T04:59:59.608Z,62.44
2022-11-04T05:05:04.426Z,62.43
2022-11-04T05:10:08.366Z,62.14
2022-11-04T05:15:11.540Z,61.88
2022-11-04T05:20:16.044Z,62.54
2022-11-04T05:25:19.185Z,62.36
2022-11-04T05:30:22.196Z,62.63
2022-11-04T05:35:26.799Z,62.20
2022-11-04T05:40:29.833Z,61.60
2022-11-04T05:45:32.940Z,61.88
2022-11-04T05:50:38.581Z,62.00
2022-11-04T05:55:41.544Z,61.62
2022-11-04T06:00:44.529Z,62.23
2022-11-04T06:05:48.918Z,61.62
2022-11-04T06:10:51.868Z,61.59
2022-11-04T06:15:54.952Z,60.99
2022-11-04T06:21:09.735Z,60.96
2022-11-04T06:26:13.881Z,60.97
2022-11-04T06:31:18.074Z,60.25
2022-11-04T06:36:22.682Z,60.13
2022-11-04T06:41:26.019Z,60.34
2022-11-04T06:46:30.617Z,60.09
2022-11-04T06:51:35.304Z,60.06
2022-11-04T06:56:38.828Z,59.74
2022-11-04T07:01:41.924Z,59.69
2022-11-04T07:06:46.756Z,59.41
2022-11-04T07:11:50.032Z,59.84
2022-11-04T07:16:53.296Z,59.37
2022-11-04T07:21:58.649Z,59.75
2022-11-04T07:32:10.176Z,60.29
2022-11-04T07:37:15.074Z,60.24
2022-11-04T07:42:20.981Z,60.59
2022-11-04T07:47:24.249Z,60.92
2022-11-04T07:52:28.698Z,60.98
2022-11-04T07:57:31.939Z,60.03
2022-11-04T08:02:35.398Z,60.13
2022-11-04T08:07:40.365Z,60.48
2022-11-04T08:12:43.390Z,60.19
2022-11-04T08:17:46.671Z,60.30
2022-11-04T08:22:51.135Z,60.04
2022-11-04T08:27:59.618Z,59.63
2022-11-04T08:33:05.428Z,60.18
2022-11-04T08:41:48.477Z,60.66
2022-11-04T08:46:52.153Z,60.65
2022-11-04T08:51:57.571Z,60.65
2022-11-04T08:57:02.814Z,60.58
2022-11-04T09:02:06.529Z,60.76
2022-11-04T09:07:10.078Z,61.00
2022-11-04T09:12:14.982Z,60.81
2022-11-04T09:17:18.464Z,60.24
2022-11-04T09:22:21.823Z,60.33
2022-11-04T09:27:26.799Z,60.48
2022-11-04T09:32:30.046Z,60.41
2022-11-04T09:37:33.397Z,59.33
2022-11-04T09:42:52.417Z,59.36
2022-11-04T09:48:02.044Z,59.13
2022-11-04T09:53:10.485Z,59.36
2022-11-04T09:58:16.092Z,59.16
2022-11-04T10:03:30.946Z,58.73
2022-11-04T10:09:00.723Z,58.98
2022-11-04T10:14:25.971Z,60.02
2022-11-04T10:19:38.039Z,59.94
2022-11-04T10:24:44.274Z,59.70
2022-11-04T10:29:54.577Z,60.03
2022-11-04T10:35:01.983Z,59.51
2022-11-04T10:40:21.838Z,59.57
2022-11-04T10:45:35.830Z,59.27
2022-11-04T10:50:43.893Z,59.55
2022-11-04T10:55:53.371Z,58.92
2022-11-04T11:00:59.442Z,59.21
2022-11-04T11:06:16.204Z,58.85
2022-11-04T11:11:37.366Z,59.79
2022-11-04T11:16:42.861Z,59.56
2022-11-04T11:21:49.469Z,59.60
2022-11-04T11:26:55.738Z,60.14
2022-11-04T11:32:02.169Z,60.70
2022-11-04T11:37:05.860Z,60.89
2022-11-04T11:42:13.293Z,60.91
2022-11-04T11:47:22.784Z,61.12
2022-11-04T11:52:38.347Z,60.50
2022-11-04T12:03:20.266Z,61.03
2022-11-04T12:14:12.856Z,59.82
2022-11-04T12:19:31.891Z,60.42
2022-11-04T12:24:45.085Z,60.05
2022-11-04T12:30:07.648Z,60.27
2022-11-04T12:35:25.907Z,59.66
2022-11-04T12:40:32.838Z,60.29
2022-11-04T12:45:52.128Z,60.70
2022-11-04T12:51:06.447Z,60.33
2022-11-04T12:56:12.582Z,60.71
2022-11-04T13:01:22.385Z,60.93
2022-11-04T13:06:32.322Z,61.00
2022-11-04T13:11:41.090Z,61.13
2022-11-04T13:16:47.833Z,61.34
2022-11-04T13:21:53.201Z,60.86
2022-11-04T13:26:57.268Z,61.33
2022-11-04T13:32:06.516Z,61.16
2022-11-04T13:37:20.738Z,60.89
2022-11-04T13:42:50.547Z,61.44
2022-11-04T13:47:58.090Z,61.32
2022-11-04T13:53:03.784Z,61.50
2022-11-04T13:58:08.793Z,61.50
2022-11-04T14:03:51.915Z,61.61
2022-11-04T14:09:28.473Z,61.28
2022-11-04T14:14:33.152Z,62.35
2022-11-04T14:20:00.972Z,62.17
2022-11-04T14:25:22.090Z,61.79
2022-11-04T14:30:36.768Z,61.84
2022-11-04T14:35:40.174Z,62.31
2022-11-04T14:40:50.258Z,61.92
2022-11-04T14:45:57.363Z,62.36
2022-11-04T14:51:01.276Z,62.96
2022-11-04T14:56:06.873Z,62.55
2022-11-04T15:01:15.556Z,62.54
2022-11-04T15:06:35.229Z,62.46
2022-11-04T15:12:15.868Z,62.53
2022-11-04T15:17:23.428Z,62.31
2022-11-04T15:22:27.563Z,62.61
2022-11-04T15:27:31.798Z,62.64
2022-11-04T15:32:36.669Z,62.50
2022-11-04T15:37:41.771Z,61.80
2022-11-04T15:42:46.496Z,62.64
2022-11-04T15:48:11.274Z,62.62
2022-11-04T15:53:17.342Z,62.55
2022-11-04T15:58:20.829Z,62.84
2022-11-04T16:03:26.001Z,62.68
2022-11-04T16:08:33.380Z,61.92
2022-11-04T16:13:36.865Z,62.40
2022-11-04T16:18:44.369Z,62.37
2022-11-04T16:23:50.606Z,62.22
2022-11-04T16:28:56.676Z,62.28
2022-11-04T16:34:01.956Z,61.91
2022-11-04T16:39:08.966Z,62.30
2022-11-04T16:44:20.283Z,62.06
2022-11-04T16:49:25.116Z,62.06
2022-11-04T16:54:28.663Z,62.12
2022-11-04T16:59:32.071Z,62.25
2022-11-04T17:04:37.397Z,61.83
2022-11-04T17:09:41.924Z,61.95
2022-11-04T17:14:45.284Z,61.91
2022-11-04T17:19:50.065Z,61.74
2022-11-04T17:24:53.586Z,62.09
2022-11-04T17:29:57.152Z,61.78
2022-11-04T17:35:01.974Z,62.12
2022-11-04T17:40:07.387Z,61.63
2022-11-04T17:45:11.360Z,61.32
2022-11-04T17:50:16.094Z,61.61
2022-11-04T17:55:26.150Z,61.96
2022-11-04T18:00:30.842Z,61.72
2022-11-04T18:05:35.730Z,61.70
2022-11-04T18:10:38.740Z,61.15
2022-11-04T18:15:42.211Z,61.65
2022-11-04T18:20:47.529Z,61.74
2022-11-04T18:25:51.034Z,61.61
2022-11-04T18:30:54.312Z,61.73
2022-11-04T18:36:04.544Z,61.35
2022-11-04T18:41:07.828Z,61.63
2022-11-04T18:46:14.752Z,61.59
2022-11-04T18:51:22.062Z,61.55
2022-11-04T18:56:25.601Z,61.44
2022-11-04T19:01:31.179Z,61.58
2022-11-04T19:06:38.699Z,61.41
2022-11-04T19:11:43.356Z,61.26
2022-11-04T19:16:47.058Z,61.20
2022-11-04T19:21:51.802Z,61.22
2022-11-04T19:26:55.084Z,61.24
2022-11-04T19:31:58.300Z,61.36
2022-11-04T19:37:03.228Z,61.06
2022-11-04T19:42:24.025Z,60.75
2022-11-04T19:47:28.605Z,60.90
2022-11-04T19:52:33.893Z,61.01
2022-11-04T19:57:37.290Z,61.14
2022-11-04T20:02:40.950Z,60.87
2022-11-04T20:07:45.980Z,61.51
2022-11-04T20:13:06.625Z,61.26
2022-11-04T20:18:10.367Z,61.75
2022-11-04T20:23:15.538Z,61.48
2022-11-04T20:28:20.554Z,61.22
2022-11-04T20:33:23.795Z,60.97
2022-11-04T20:38:28.803Z,61.36
2022-11-04T20:43:34.393Z,61.71
2022-11-04T20:48:38.225Z,61.71
2022-11-04T20:53:45.708Z,61.44
2022-11-04T20:58:52.009Z,61.27
2022-11-04T21:04:00.945Z,61.46
2022-11-04T21:09:07.002Z,61.19
2022-11-04T21:14:13.918Z,60.97
2022-11-04T21:19:20.228Z,61.35
2022-11-04T21:24:25.248Z,61.22
2022-11-04T21:29:28.479Z,61.37
2022-11-04T21:34:31.752Z,61.34
2022-11-04T21:39:36.605Z,60.90
2022-11-04T21:44:39.549Z,60.91
2022-11-04T21:49:43.009Z,61.28
2022-11-04T21:54:47.635Z,61.09
2022-11-04T21:59:53.371Z,61.10
2022-11-04T22:04:56.715Z,61.41
2022-11-04T22:10:01.333Z,61.68
2022-11-04T22:15:05.678Z,61.19
2022-11-04T22:20:10.036Z,61.01
2022-11-04T22:25:14.926Z,61.04
2022-11-04T22:30:18.192Z,61.07
2022-11-04T22:35:21.670Z,60.64
2022-11-04T22:40:26.426Z,60.89
2022-11-04T22:45:30.023Z,60.64
2022-11-04T22:50:34.775Z,60.85
2022-11-04T22:55:39.876Z,60.15
2022-11-04T23:00:43.542Z,60.77
2022-11-04T23:05:46.943Z,60.74
2022-11-04T23:11:08.954Z,60.33
2022-11-04T23:16:31.358Z,60.05
2022-11-04T23:21:52.218Z,60.07
2022-11-04T23:26:57.826Z,60.53
2022-11-04T23:32:01.141Z,60.74
2022-11-04T23:37:13.653Z,59.92
2022-11-04T23:42:20.427Z,60.32
2022-11-04T23:47:40.365Z,60.13
2022-11-04T23:53:00.886Z,60.40
2022-11-04T23:58:23.352Z,59.82
